createdAt,value
2019-02-19T00:01:30.101Z,110.92
2019-02-19T00:03:58.600Z,114.35
2019-02-19T00:06:26.934Z,104.97
2019-02-19T00:08:55.108Z,110.68
2019-02-19T00:11:23.345Z,106.60
2019-02-19T00:13:51.605Z,110.08
2019-02-19T00:16:19.828Z,105.45
2019-02-19T00:18:48.151Z,107.75
2019-02-19T00:21:16.382Z,106.40
2019-02-19T00:23:44.676Z,115.47
2019-02-19T00:26:17.261Z,112.80
2019-02-19T00:28:45.601Z,115.57
2019-02-19T00:31:13.838Z,112.42
2019-02-19T00:33:42.016Z,110.30
2019-02-19T00:36:10.367Z,113.25
2019-02-19T00:38:38.613Z,110.63
2019-02-19T00:41:06.861Z,110.78
2019-02-19T00:43:35.068Z,114.40
2019-02-19T00:46:03.278Z,115.15
2019-02-19T00:48:31.638Z,112.83
2019-02-19T00:50:59.842Z,111.35
2019-02-19T00:53:28.119Z,118.55
2019-02-19T00:55:56.327Z,114.42
2019-02-19T00:58:24.679Z,121.57
2019-02-19T01:00:53.166Z,115.52
2019-02-19T01:03:21.336Z,115.35
2019-02-19T01:05:50.508Z,117.28
2019-02-19T01:08:18.740Z,118.33
2019-02-19T01:10:46.929Z,118.25
2019-02-19T01:13:15.127Z,111.32
2019-02-19T01:15:43.418Z,117.33
2019-02-19T01:18:11.601Z,123.30
2019-02-19T01:20:39.840Z,118.57
2019-02-19T01:23:08.260Z,119.97
2019-02-19T01:25:36.476Z,114.97
2019-02-19T01:28:04.715Z,123.55
2019-02-19T01:30:32.956Z,120.55
2019-02-19T01:33:02.471Z,119.90
2019-02-19T01:35:30.770Z,119.05
2019-02-19T01:37:59.049Z,113.85
2019-02-19T01:40:27.248Z,120.97
2019-02-19T01:42:55.434Z,110.15
2019-02-19T01:45:23.628Z,118.85
2019-02-19T01:47:52.129Z,113.90
2019-02-19T01:50:20.755Z,120.22
2019-02-19T01:52:49.451Z,118.17
2019-02-19T01:55:17.836Z,110.75
2019-02-19T01:57:46.370Z,117.82
2019-02-19T02:00:15.003Z,125.42
2019-02-19T02:02:43.348Z,119.97
2019-02-19T02:05:11.714Z,120.67
2019-02-19T02:07:40.394Z,117.97
2019-02-19T02:10:08.743Z,122.55
2019-02-19T02:12:37.149Z,120.13
2019-02-19T02:15:05.900Z,116.42
2019-02-19T02:17:34.619Z,119.35
2019-02-19T02:20:02.903Z,116.97
2019-02-19T02:22:31.182Z,118.87
2019-02-19T02:24:59.366Z,123.13
2019-02-19T02:27:27.620Z,123.95
2019-02-19T02:29:56.065Z,115.15
2019-02-19T02:32:24.859Z,127.55
2019-02-19T02:34:53.183Z,130.67
2019-02-19T02:37:21.508Z,125.40
2019-02-19T02:39:50.188Z,125.65
2019-02-19T02:42:18.469Z,120.45
2019-02-19T02:44:46.710Z,122.02
2019-02-19T02:47:15.342Z,120.90
2019-02-19T02:49:43.757Z,120.02
2019-02-19T02:52:11.971Z,122.60
2019-02-19T02:54:40.530Z,124.27
2019-02-19T02:57:09.262Z,119.93
2019-02-19T02:59:37.679Z,122.25
2019-02-19T03:02:05.906Z,118.90
2019-02-19T03:04:34.172Z,126.67
2019-02-19T03:07:31.168Z,128.15
2019-02-19T03:09:59.447Z,126.53
2019-02-19T03:12:27.657Z,125.90
2019-02-19T03:14:55.887Z,127.20
2019-02-19T03:17:24.147Z,133.85
2019-02-19T03:19:52.340Z,128.65
2019-02-19T03:22:20.895Z,127.47
2019-02-19T03:24:49.216Z,127.62
2019-02-19T03:27:17.657Z,126.18
2019-02-19T03:29:45.840Z,122.82
2019-02-19T03:32:14.007Z,129.55
2019-02-19T03:34:42.257Z,124.40
2019-02-19T03:37:10.560Z,131.00
2019-02-19T03:39:39.585Z,122.60
2019-02-19T03:42:09.877Z,127.02
2019-02-19T03:44:38.122Z,129.27
2019-02-19T03:47:06.286Z,125.07
2019-02-19T03:49:34.571Z,130.15
2019-02-19T03:52:02.872Z,124.15
2019-02-19T03:54:31.071Z,125.62
2019-02-19T03:56:59.364Z,127.30
2019-02-19T03:59:27.598Z,128.38
2019-02-19T04:01:55.773Z,126.70
2019-02-19T04:04:24.096Z,131.45
2019-02-19T04:06:52.759Z,124.78
2019-02-19T04:09:21.026Z,130.97
2019-02-19T04:11:49.395Z,132.97
2019-02-19T04:14:17.621Z,127.95
2019-02-19T04:16:45.856Z,129.85
2019-02-19T04:19:14.030Z,126.15
2019-02-19T04:21:42.655Z,129.87
2019-02-19T04:24:10.893Z,129.03
2019-02-19T04:26:39.243Z,124.90
2019-02-19T04:29:07.523Z,131.12
2019-02-19T04:31:35.699Z,134.27
2019-02-19T04:34:03.975Z,130.20
2019-02-19T04:36:32.260Z,125.70
2019-02-19T04:39:02.180Z,132.15
2019-02-19T04:41:30.581Z,106.05
2019-02-19T04:43:58.885Z,130.15
2019-02-19T04:46:31.590Z,127.10
2019-02-19T04:48:57.589Z,134.67
2019-02-19T04:51:25.923Z,124.00
2019-02-19T04:53:54.186Z,128.42
2019-02-19T04:56:24.055Z,130.30
2019-02-19T04:58:52.908Z,124.22
2019-02-19T05:01:21.179Z,128.90
2019-02-19T05:03:49.396Z,135.85
2019-02-19T05:06:17.609Z,137.82
2019-02-19T05:08:45.850Z,134.90
2019-02-19T05:11:14.069Z,127.72
2019-02-19T05:13:42.267Z,130.70
2019-02-19T05:16:10.435Z,140.35
2019-02-19T05:18:38.641Z,135.80
2019-02-19T05:21:07.294Z,136.85
2019-02-19T05:23:35.814Z,135.97
2019-02-19T05:26:04.537Z,136.32
2019-02-19T05:28:33.211Z,136.32
2019-02-19T05:31:01.354Z,134.85
2019-02-19T05:33:29.522Z,134.57
2019-02-19T05:35:57.735Z,135.80
2019-02-19T05:38:25.952Z,127.55
2019-02-19T05:40:54.414Z,135.93
2019-02-19T05:43:22.599Z,135.15
2019-02-19T05:45:51.215Z,136.97
2019-02-19T05:48:20.034Z,137.20
2019-02-19T05:50:48.933Z,124.05
2019-02-19T05:53:17.751Z,140.65
2019-02-19T05:55:45.944Z,143.07
2019-02-19T05:58:14.595Z,137.20
2019-02-19T06:00:43.153Z,137.90
2019-02-19T06:03:17.173Z,142.45
2019-02-19T06:05:45.412Z,146.65
2019-02-19T06:08:13.673Z,147.87
2019-02-19T06:10:41.950Z,145.80
2019-02-19T06:13:10.182Z,155.30
2019-02-19T06:15:38.535Z,146.00
2019-02-19T06:18:06.966Z,137.47
2019-02-19T06:20:35.632Z,143.32
2019-02-19T06:23:04.216Z,140.43
2019-02-19T06:25:32.619Z,132.12
2019-02-19T06:28:01.362Z,135.22
2019-02-19T06:30:29.541Z,129.35
2019-02-19T06:32:57.929Z,143.72
2019-02-19T06:35:26.197Z,133.35
2019-02-19T06:37:54.527Z,133.12
2019-02-19T06:40:28.114Z,139.90
2019-02-19T06:42:56.590Z,137.32
2019-02-19T06:45:25.028Z,134.12
2019-02-19T06:47:53.678Z,130.63
2019-02-19T06:50:22.392Z,115.45
2019-02-19T06:52:50.735Z,110.48
2019-02-19T06:55:18.874Z,112.15
2019-02-19T06:57:47.116Z,108.37
2019-02-19T07:00:15.851Z,105.12
2019-02-19T07:03:12.827Z,106.22
2019-02-19T07:05:41.391Z,109.65
2019-02-19T07:08:09.737Z,103.95
2019-02-19T07:10:37.881Z,107.35
2019-02-19T07:13:06.288Z,105.27
2019-02-19T07:15:35.008Z,108.72
2019-02-19T07:18:03.284Z,101.30
2019-02-19T07:20:31.482Z,99.15
2019-02-19T07:22:59.717Z,94.75
2019-02-19T07:25:27.911Z,94.00
2019-02-19T07:27:56.302Z,93.22
2019-02-19T07:30:24.466Z,90.05
2019-02-19T07:32:52.690Z,86.57
2019-02-19T07:35:20.914Z,81.22
2019-02-19T07:37:49.143Z,82.30
2019-02-19T07:40:17.578Z,79.75
2019-02-19T07:42:46.271Z,74.27
2019-02-19T07:45:14.486Z,70.95
2019-02-19T07:47:42.763Z,66.82
2019-02-19T07:50:10.967Z,66.45
2019-02-19T07:52:39.223Z,63.00
2019-02-19T07:55:07.875Z,61.45
2019-02-19T07:57:36.057Z,59.85
2019-02-19T08:00:04.703Z,60.43
2019-02-19T08:02:32.966Z,54.85
2019-02-19T08:05:01.639Z,50.33
2019-02-19T08:07:29.874Z,51.23
2019-02-19T08:09:58.117Z,47.45
2019-02-19T08:12:26.394Z,48.30
2019-02-19T08:14:54.566Z,44.95
2019-02-19T08:17:22.709Z,47.08
2019-02-19T08:19:50.969Z,45.85
2019-02-19T08:22:19.273Z,44.18
2019-02-19T08:24:47.463Z,43.65
2019-02-19T08:27:15.716Z,42.58
2019-02-19T08:29:44.299Z,44.18
2019-02-19T08:32:13.506Z,44.05
2019-02-19T08:34:42.091Z,43.50
2019-02-19T08:37:10.350Z,43.15
2019-02-19T08:39:38.697Z,41.15
2019-02-19T08:42:06.916Z,41.02
2019-02-19T08:44:35.729Z,39.83
2019-02-19T08:47:03.986Z,41.30
2019-02-19T08:49:32.274Z,38.90
2019-02-19T08:52:02.077Z,36.33
2019-02-19T08:54:30.288Z,38.43
2019-02-19T08:56:58.523Z,36.38
2019-02-19T08:59:26.812Z,37.35
2019-02-19T09:01:55.096Z,37.05
2019-02-19T09:04:23.312Z,35.43
2019-02-19T09:06:51.718Z,36.70
2019-02-19T09:09:19.998Z,35.90
2019-02-19T09:11:48.161Z,35.38
2019-02-19T09:14:16.564Z,35.38
2019-02-19T09:16:44.990Z,33.23
2019-02-19T09:19:13.345Z,32.98
2019-02-19T09:21:41.551Z,33.90
2019-02-19T09:24:09.927Z,32.35
2019-02-19T09:26:38.080Z,34.60
2019-02-19T09:29:06.383Z,32.78
2019-02-19T09:31:34.587Z,31.85
2019-02-19T09:34:04.303Z,31.35
2019-02-19T09:36:32.639Z,31.07
2019-02-19T09:39:01.142Z,31.20
2019-02-19T09:41:29.831Z,32.55
2019-02-19T09:43:58.225Z,31.00
2019-02-19T09:46:26.488Z,29.30
2019-02-19T09:48:54.725Z,29.32
2019-02-19T09:51:23.115Z,30.75
2019-02-19T09:53:51.533Z,29.70
2019-02-19T09:56:20.249Z,30.15
2019-02-19T09:58:48.679Z,27.25
2019-02-19T10:01:16.969Z,28.50
2019-02-19T10:03:45.283Z,28.95
2019-02-19T10:06:13.656Z,28.92
2019-02-19T10:08:41.966Z,25.88
2019-02-19T10:11:10.405Z,28.27
2019-02-19T10:13:41.705Z,27.25
2019-02-19T10:16:09.955Z,27.05
2019-02-19T10:18:38.833Z,27.60
2019-02-19T10:21:07.602Z,27.02
2019-02-19T10:23:36.352Z,24.67
2019-02-19T10:26:04.700Z,26.02
2019-02-19T10:28:32.979Z,25.55
2019-02-19T10:31:01.349Z,23.98
2019-02-19T10:33:29.899Z,25.88
2019-02-19T10:35:58.188Z,26.50
2019-02-19T10:38:26.544Z,26.20
2019-02-19T10:40:57.775Z,24.05
2019-02-19T10:43:26.165Z,23.98
2019-02-19T10:45:54.399Z,25.88
2019-02-19T10:48:23.458Z,23.40
2019-02-19T10:50:51.801Z,24.32
2019-02-19T10:53:20.383Z,25.17
2019-02-19T10:55:48.693Z,24.65
2019-02-19T10:58:23.042Z,25.92
2019-02-19T11:00:47.471Z,23.95
2019-02-19T11:03:15.911Z,24.30
2019-02-19T11:05:44.229Z,25.32
2019-02-19T11:08:12.559Z,24.67
2019-02-19T11:10:40.828Z,25.45
2019-02-19T11:13:09.540Z,23.35
2019-02-19T11:15:37.997Z,26.33
2019-02-19T11:18:06.333Z,25.60
2019-02-19T11:20:37.163Z,24.67
2019-02-19T11:23:05.718Z,24.65
2019-02-19T11:25:34.065Z,25.50
2019-02-19T11:28:02.397Z,25.12
2019-02-19T11:30:30.822Z,26.57
2019-02-19T11:32:59.244Z,26.17
2019-02-19T11:35:27.631Z,24.90
2019-02-19T11:37:56.094Z,24.72
2019-02-19T11:40:24.689Z,25.27
2019-02-19T11:42:53.531Z,26.75
2019-02-19T11:45:22.366Z,25.17
2019-02-19T11:47:50.708Z,24.90
2019-02-19T11:50:19.436Z,26.37
2019-02-19T11:52:47.707Z,24.35
2019-02-19T11:55:16.394Z,22.48
2019-02-19T11:57:44.667Z,24.55
2019-02-19T12:00:16.546Z,23.70
2019-02-19T12:02:44.804Z,23.20
2019-02-19T12:05:13.196Z,23.83
2019-02-19T12:07:41.552Z,23.85
2019-02-19T12:10:11.949Z,25.77
2019-02-19T12:15:08.596Z,24.45
2019-02-19T12:17:36.966Z,22.60
2019-02-19T12:20:05.394Z,23.42
2019-02-19T12:22:33.857Z,23.83
2019-02-19T12:25:02.459Z,23.15
2019-02-19T12:27:31.009Z,23.60
2019-02-19T12:29:59.315Z,24.12
2019-02-19T12:32:27.694Z,22.73
2019-02-19T12:34:56.017Z,22.73
2019-02-19T12:37:24.280Z,22.42
2019-02-19T12:39:52.729Z,23.27
2019-02-19T12:42:24.113Z,22.52
2019-02-19T12:44:52.520Z,22.73
2019-02-19T12:47:20.769Z,23.60
2019-02-19T12:49:49.131Z,23.18
2019-02-19T12:52:17.353Z,22.80
2019-02-19T12:54:48.076Z,22.67
2019-02-19T12:57:16.478Z,21.57
2019-02-19T12:59:45.004Z,21.70
2019-02-19T13:02:13.288Z,24.07
2019-02-19T13:04:41.676Z,23.73
2019-02-19T13:07:10.096Z,21.33
2019-02-19T13:09:38.486Z,23.75
2019-02-19T13:12:06.981Z,23.15
2019-02-19T13:14:35.886Z,21.48
2019-02-19T13:17:04.279Z,23.77
2019-02-19T13:19:32.607Z,22.22
2019-02-19T13:22:03.420Z,23.60
2019-02-19T13:24:32.493Z,22.65
2019-02-19T13:27:01.411Z,22.90
2019-02-19T13:29:29.962Z,24.15
2019-02-19T13:31:58.390Z,22.95
2019-02-19T13:34:27.117Z,24.10
2019-02-19T13:36:55.408Z,24.00
2019-02-19T13:39:23.772Z,23.83
2019-02-19T13:41:52.044Z,23.62
2019-02-19T13:44:20.418Z,24.00
2019-02-19T13:46:48.711Z,22.60
2019-02-19T13:49:16.984Z,19.77
2019-02-19T13:51:45.301Z,19.40
2019-02-19T13:54:51.193Z,20.45
2019-02-19T13:57:19.517Z,21.12
2019-02-19T13:59:47.796Z,20.30
2019-02-19T14:02:16.253Z,19.30
2019-02-19T14:04:44.646Z,21.23
2019-02-19T14:07:12.904Z,19.80
2019-02-19T14:09:41.313Z,20.80
2019-02-19T14:12:09.825Z,21.77
2019-02-19T14:14:45.874Z,20.65
2019-02-19T14:17:16.679Z,20.88
2019-02-19T14:19:52.329Z,21.02
2019-02-19T14:22:38.968Z,22.10
2019-02-19T14:25:26.028Z,21.10
2019-02-19T14:28:23.146Z,22.25
2019-02-19T14:31:09.879Z,22.20
2019-02-19T14:34:03.717Z,22.93
2019-02-19T14:36:42.895Z,24.07
2019-02-19T14:39:42.709Z,21.15
2019-02-19T14:42:48.504Z,23.90
2019-02-19T14:45:36.419Z,24.60
2019-02-19T14:48:33.267Z,25.20
2019-02-19T14:51:22.503Z,25.52
2019-02-19T14:54:21.676Z,25.30
2019-02-19T14:57:12.815Z,25.05
2019-02-19T14:59:59.183Z,26.12
2019-02-19T15:02:47.500Z,26.27
2019-02-19T15:05:50.678Z,25.20
2019-02-19T15:08:41.368Z,24.27
2019-02-19T15:14:17.122Z,27.80
2019-02-19T15:17:10.812Z,28.55
2019-02-19T15:20:00.959Z,27.27
2019-02-19T15:22:57.592Z,25.92
2019-02-19T15:25:56.600Z,26.77
2019-02-19T15:28:43.230Z,29.92
2019-02-19T15:31:29.634Z,28.62
2019-02-19T15:34:15.971Z,29.55
2019-02-19T15:37:22.032Z,31.57
2019-02-19T15:40:08.123Z,31.40
2019-02-19T15:43:10.935Z,31.75
2019-02-19T15:46:08.523Z,31.35
2019-02-19T15:48:58.249Z,31.23
2019-02-19T15:51:54.869Z,31.87
2019-02-19T15:54:51.962Z,31.93
2019-02-19T15:57:42.389Z,33.38
2019-02-19T16:00:33.133Z,33.67
2019-02-19T16:03:09.802Z,33.60
2019-02-19T16:06:03.600Z,33.00
2019-02-19T16:08:41.091Z,34.25
2019-02-19T16:11:28.447Z,32.80
2019-02-19T16:14:22.567Z,33.53
2019-02-19T16:17:25.761Z,34.10
2019-02-19T16:20:13.712Z,35.03
2019-02-19T16:23:00.407Z,33.05
2019-02-19T16:25:40.213Z,34.70
2019-02-19T16:28:34.100Z,35.98
2019-02-19T16:31:30.772Z,34.05
2019-02-19T16:34:28.069Z,34.95
2019-02-19T16:37:18.661Z,39.45
2019-02-19T16:40:09.030Z,36.38
2019-02-19T16:42:57.735Z,37.00
2019-02-19T16:45:35.383Z,35.15
2019-02-19T16:48:22.417Z,35.80
2019-02-19T16:50:59.794Z,36.13
2019-02-19T16:53:46.037Z,36.90
2019-02-19T16:56:42.365Z,38.08
2019-02-19T16:59:33.177Z,39.10
2019-02-19T17:02:32.684Z,42.98
2019-02-19T17:05:23.586Z,39.88
2019-02-19T17:11:25.949Z,36.25
2019-02-19T17:14:12.203Z,38.85
2019-02-19T17:17:15.190Z,38.48
2019-02-19T17:19:56.452Z,39.73
2019-02-19T17:22:35.611Z,43.70
2019-02-19T17:25:16.619Z,44.05
2019-02-19T17:27:51.603Z,43.40
2019-02-19T17:30:38.523Z,43.30
2019-02-19T17:33:34.425Z,42.23
2019-02-19T17:36:25.458Z,40.23
2019-02-19T17:39:16.626Z,39.73
2019-02-19T17:42:04.677Z,39.27
2019-02-19T17:44:51.429Z,39.20
2019-02-19T17:47:42.583Z,38.78
2019-02-19T17:50:37.951Z,40.33
2019-02-19T17:53:18.927Z,40.03
2019-02-19T17:56:04.077Z,38.13
2019-02-19T17:58:57.851Z,38.05
2019-02-19T18:01:48.730Z,37.20
2019-02-19T18:07:35.200Z,40.83
2019-02-19T18:10:23.375Z,37.50
2019-02-19T18:13:10.728Z,40.63
2019-02-19T18:15:54.698Z,38.45
2019-02-19T18:18:41.211Z,37.30
2019-02-19T18:21:09.812Z,37.98
2019-02-19T18:23:38.769Z,38.17
2019-02-19T18:26:07.677Z,39.63
2019-02-19T18:28:36.213Z,40.95
2019-02-19T18:31:04.719Z,40.75
2019-02-19T18:33:33.084Z,41.28
2019-02-19T18:36:01.674Z,39.73
2019-02-19T18:38:31.666Z,40.12
2019-02-19T18:41:00.830Z,41.45
2019-02-19T18:43:29.182Z,43.28
2019-02-19T18:45:57.659Z,42.35
2019-02-19T18:48:26.092Z,43.85
2019-02-19T18:50:58.467Z,42.50
2019-02-19T18:53:24.903Z,44.67
2019-02-19T18:55:53.551Z,46.60
2019-02-19T18:58:21.883Z,47.67
2019-02-19T19:00:50.285Z,46.90
2019-02-19T19:03:18.492Z,47.40
2019-02-19T19:05:47.175Z,47.65
2019-02-19T19:08:15.527Z,50.48
2019-02-19T19:10:46.921Z,51.55
2019-02-19T19:13:15.522Z,50.17
2019-02-19T19:15:45.541Z,51.48
2019-02-19T19:18:14.222Z,55.40
2019-02-19T19:20:42.809Z,54.15
2019-02-19T19:23:11.734Z,54.20
2019-02-19T19:25:40.418Z,55.25
2019-02-19T19:28:08.826Z,57.70
2019-02-19T19:30:36.981Z,56.00
2019-02-19T19:33:06.084Z,57.40
2019-02-19T19:35:34.380Z,56.55
2019-02-19T19:38:02.575Z,52.30
2019-02-19T19:40:30.884Z,51.75
2019-02-19T19:42:59.161Z,51.05
2019-02-19T19:45:27.438Z,51.98
2019-02-19T19:47:55.660Z,54.15
2019-02-19T19:50:23.977Z,54.27
2019-02-19T19:52:52.241Z,54.50
2019-02-19T19:55:20.447Z,55.83
2019-02-19T19:57:48.694Z,55.52
2019-02-19T20:00:17.127Z,56.40
2019-02-19T20:02:45.384Z,53.13
2019-02-19T20:05:13.634Z,53.80
2019-02-19T20:07:41.831Z,54.95
2019-02-19T20:10:10.138Z,53.13
2019-02-19T20:12:38.415Z,51.00
2019-02-19T20:15:07.594Z,47.65
2019-02-19T20:17:35.849Z,47.53
2019-02-19T20:20:05.127Z,46.00
2019-02-19T20:22:33.373Z,46.55
2019-02-19T20:25:02.434Z,44.23
2019-02-19T20:27:30.658Z,43.20
2019-02-19T20:29:58.872Z,42.93
2019-02-19T20:32:27.073Z,40.50
2019-02-19T20:34:55.299Z,42.25
2019-02-19T20:37:23.502Z,40.00
2019-02-19T20:39:51.691Z,40.85
2019-02-19T20:42:19.918Z,39.23
2019-02-19T20:44:48.088Z,37.80
2019-02-19T20:47:16.372Z,39.88
2019-02-19T20:49:44.563Z,39.23
2019-02-19T20:52:12.742Z,40.00
2019-02-19T20:54:40.922Z,39.35
2019-02-19T20:57:09.222Z,40.58
2019-02-19T20:59:37.464Z,38.15
2019-02-19T21:02:05.648Z,38.23
2019-02-19T21:04:33.873Z,38.35
2019-02-19T21:07:02.055Z,37.23
2019-02-19T21:09:30.291Z,35.17
2019-02-19T21:11:58.453Z,38.02
2019-02-19T21:14:26.677Z,36.35
2019-02-19T21:16:54.887Z,36.28
2019-02-19T21:19:23.161Z,34.80
2019-02-19T21:21:51.345Z,34.80
2019-02-19T21:24:19.629Z,37.73
2019-02-19T21:26:47.807Z,40.45
2019-02-19T21:29:15.978Z,36.90
2019-02-19T21:31:44.286Z,36.00
2019-02-19T21:34:12.425Z,35.28
2019-02-19T21:36:40.701Z,35.48
2019-02-19T21:39:08.974Z,34.20
2019-02-19T21:41:37.176Z,36.53
2019-02-19T21:44:05.369Z,37.70
2019-02-19T21:46:34.024Z,38.23
2019-02-19T21:49:02.318Z,38.95
2019-02-19T21:51:30.434Z,38.45
2019-02-19T21:53:58.687Z,38.55
2019-02-19T21:56:26.883Z,39.83
2019-02-19T21:58:55.039Z,37.15
2019-02-19T22:01:23.221Z,40.83
2019-02-19T22:03:51.390Z,37.63
2019-02-19T22:06:19.600Z,41.05
2019-02-19T22:08:47.785Z,40.12
2019-02-19T22:11:16.014Z,41.00
2019-02-19T22:13:44.202Z,39.50
2019-02-19T22:16:12.458Z,40.50
2019-02-19T22:18:40.603Z,38.88
2019-02-19T22:21:23.511Z,40.48
2019-02-19T22:23:51.729Z,39.45
2019-02-19T22:26:19.884Z,39.35
2019-02-19T22:28:48.075Z,41.08
2019-02-19T22:31:16.320Z,38.33
2019-02-19T22:33:44.527Z,41.08
2019-02-19T22:36:12.751Z,43.68
2019-02-19T22:38:40.977Z,41.37
2019-02-19T22:41:09.328Z,41.10
2019-02-19T22:43:37.522Z,42.00
2019-02-19T22:46:05.867Z,42.90
2019-02-19T22:48:34.127Z,42.85
2019-02-19T22:51:02.302Z,44.27
2019-02-19T22:53:56.020Z,43.80
2019-02-19T22:56:27.312Z,42.08
2019-02-19T22:58:55.580Z,44.08
2019-02-19T23:01:32.588Z,44.50
2019-02-19T23:04:02.153Z,44.80
2019-02-19T23:06:30.412Z,44.10
2019-02-19T23:08:58.809Z,46.70
2019-02-19T23:11:26.991Z,47.43
2019-02-19T23:13:55.220Z,43.63
2019-02-19T23:16:23.543Z,43.25
2019-02-19T23:18:51.714Z,44.98
2019-02-19T23:21:19.926Z,43.15
2019-02-19T23:23:48.159Z,38.70
2019-02-19T23:26:16.377Z,39.85
2019-02-19T23:28:44.600Z,38.60
2019-02-19T23:31:12.816Z,41.65
2019-02-19T23:33:41.038Z,40.38
2019-02-19T23:36:37.600Z,39.18
2019-02-19T23:39:06.735Z,39.35
2019-02-19T23:41:34.989Z,35.63
2019-02-19T23:44:03.266Z,36.88
2019-02-19T23:46:31.601Z,37.93
2019-02-19T23:48:59.817Z,35.35
2019-02-19T23:51:28.032Z,35.78
2019-02-19T23:53:56.276Z,38.35
2019-02-19T23:56:24.553Z,35.95
2019-02-19T23:58:52.769Z,35.58
